Time;durP1;ratioP1;P1;durP2;ratioP2;P2;SDS_P1;SDS_P2;PMS_P1;PMS_P2;Temp;Humidity;BMP_temperature;BMP_pressure;BME280_temperature;BME280_humidity;BME280_pressure;Samples;Min_cycle;Max_cycle;Signal;HPM_P1;HPM_P2
2021/09/17 00:02:05;;;;;;;15.13;8.10;;;15.80;82.10;;;;;;6251360;28;20450;-80
2021/09/17 00:05:08;;;;;;;11.65;8.82;;;15.80;82.00;;;;;;6252053;28;20407;-80
2021/09/17 00:08:10;;;;;;;10.85;7.90;;;15.80;82.00;;;;;;6252001;28;20525;-79
2021/09/17 00:11:12;;;;;;;9.65;7.95;;;15.70;82.50;;;;;;6251329;28;20494;-80
2021/09/17 00:14:15;;;;;;;11.90;8.93;;;15.70;82.30;;;;;;6251622;28;20486;-80
2021/09/17 00:17:17;;;;;;;9.70;8.20;;;15.70;82.50;;;;;;6252508;28;20445;-80
2021/09/17 00:20:19;;;;;;;11.93;8.23;;;15.60;82.50;;;;;;6250934;28;20514;-79
2021/09/17 00:23:21;;;;;;;16.45;8.52;;;15.70;83.10;;;;;;6247391;28;20506;-78
2021/09/17 00:26:22;;;;;;;11.13;8.40;;;15.80;82.10;;;;;;6251149;28;20462;-80
2021/09/17 00:29:26;;;;;;;13.65;8.05;;;15.90;82.30;;;;;;6252053;28;20498;-79
2021/09/17 00:32:29;;;;;;;11.40;7.77;;;16.00;82.10;;;;;;6253046;28;20473;-79
2021/09/17 00:35:31;;;;;;;8.73;7.82;;;16.00;82.00;;;;;;6234738;28;20460;-79
2021/09/17 00:38:33;;;;;;;10.13;7.93;;;16.10;82.10;;;;;;6225919;28;20527;-78
2021/09/17 00:41:34;;;;;;;12.27;8.43;;;16.10;81.60;;;;;;6225879;28;20468;-79
2021/09/17 00:44:38;;;;;;;9.25;7.78;;;16.00;82.30;;;;;;6225656;28;20531;-79
2021/09/17 00:47:41;;;;;;;15.50;7.72;;;16.00;82.30;;;;;;6225799;28;20535;-79
2021/09/17 00:50:43;;;;;;;10.15;8.73;;;16.00;81.60;;;;;;6225294;28;20417;-79
2021/09/17 00:53:45;;;;;;;10.13;8.63;;;16.00;82.10;;;;;;6225589;28;20440;-79
2021/09/17 00:56:48;;;;;;;8.50;7.47;;;16.10;82.30;;;;;;6225697;28;20523;-79
2021/09/17 00:59:51;;;;;;;8.27;6.95;;;16.10;82.20;;;;;;6225113;28;20476;-79
2021/09/17 01:02:53;;;;;;;11.52;8.20;;;16.10;82.20;;;;;;6224932;28;20486;-79
2021/09/17 01:05:55;;;;;;;14.55;8.40;;;16.10;82.00;;;;;;6225200;28;20436;-79
2021/09/17 01:08:58;;;;;;;13.83;9.37;;;16.20;82.10;;;;;;6225335;28;20491;-79
2021/09/17 01:12:03;;;;;;;9.20;8.27;;;16.20;81.80;;;;;;6226485;28;20509;-80
2021/09/17 01:15:08;;;;;;;9.90;8.00;;;16.10;82.50;;;;;;6225518;28;20412;-79
2021/09/17 01:18:10;;;;;;;10.95;7.28;;;16.10;82.20;;;;;;6224881;28;20417;-80
2021/09/17 01:21:13;;;;;;;14.15;9.15;;;16.10;82.40;;;;;;6224175;28;20443;-79
2021/09/17 01:24:15;;;;;;;11.60;7.73;;;16.20;82.20;;;;;;6224953;28;20472;-79
2021/09/17 01:27:18;;;;;;;11.43;8.05;;;16.10;82.10;;;;;;6224507;28;20448;-79
2021/09/17 01:30:22;;;;;;;9.15;7.82;;;16.10;82.40;;;;;;6224373;28;20444;-79
2021/09/17 01:33:24;;;;;;;12.13;7.53;;;16.00;81.90;;;;;;6225208;28;20665;-79
2021/09/17 01:36:27;;;;;;;11.95;8.05;;;16.00;81.80;;;;;;6237361;28;20447;-80
2021/09/17 01:39:29;;;;;;;16.77;7.75;;;15.90;82.40;;;;;;6223855;28;20492;-80
2021/09/17 01:42:31;;;;;;;10.23;8.82;;;15.70;82.70;;;;;;6224834;28;20417;-80
2021/09/17 01:45:33;;;;;;;10.02;7.82;;;15.70;83.00;;;;;;6224555;28;20858;-79
2021/09/17 01:48:35;;;;;;;11.70;8.23;;;15.60;83.10;;;;;;6225591;28;20456;-80
2021/09/17 01:51:38;;;;;;;18.42;8.15;;;15.50;83.30;;;;;;6225792;28;20519;-80
2021/09/17 01:54:41;;;;;;;10.65;8.60;;;15.40;83.30;;;;;;6225368;28;20498;-78
2021/09/17 01:57:43;;;;;;;11.48;7.57;;;15.30;83.40;;;;;;6224501;28;20937;-79
2021/09/17 02:00:45;;;;;;;10.50;8.32;;;15.20;83.10;;;;;;6224769;28;20436;-79
2021/09/17 02:03:47;;;;;;;10.70;7.88;;;15.10;83.00;;;;;;6229955;28;21197;-79
2021/09/17 02:06:50;;;;;;;10.40;8.15;;;15.10;82.70;;;;;;6230836;28;20415;-79
2021/09/17 02:09:52;;;;;;;14.57;7.90;;;15.00;82.80;;;;;;6229396;28;20432;-78
2021/09/17 02:12:54;;;;;;;14.48;8.20;;;15.00;82.90;;;;;;6229411;28;20452;-79
2021/09/17 02:15:56;;;;;;;13.02;9.20;;;14.90;83.30;;;;;;6230424;28;20432;-79
2021/09/17 02:18:58;;;;;;;13.25;8.10;;;14.70;83.40;;;;;;6229592;28;20468;-79
2021/09/17 02:22:01;;;;;;;13.85;8.00;;;14.70;83.10;;;;;;6229405;28;20405;-79
2021/09/17 02:25:04;;;;;;;12.10;7.90;;;14.60;83.60;;;;;;6230245;28;20496;-79
2021/09/17 02:28:06;;;;;;;13.75;9.02;;;14.60;83.30;;;;;;6229456;28;20483;-78
2021/09/17 02:31:08;;;;;;;11.75;8.52;;;14.50;84.40;;;;;;6228732;28;20467;-78
2021/09/17 02:34:11;;;;;;;15.75;8.77;;;14.40;83.60;;;;;;6230004;28;21040;-79
2021/09/17 02:37:14;;;;;;;10.57;7.87;;;14.40;83.70;;;;;;6247059;28;20511;-79
2021/09/17 02:40:17;;;;;;;8.50;7.70;;;14.30;83.90;;;;;;6255610;28;20528;-78
2021/09/17 02:43:19;;;;;;;13.82;8.40;;;14.20;84.10;;;;;;6255223;28;20443;-80
2021/09/17 02:46:21;;;;;;;17.38;8.95;;;14.30;83.90;;;;;;6254400;28;20500;-79
2021/09/17 02:49:23;;;;;;;12.98;8.02;;;14.10;83.70;;;;;;6253751;28;20420;-79
2021/09/17 02:52:26;;;;;;;16.02;8.02;;;14.10;83.80;;;;;;6254591;28;20514;-79
2021/09/17 02:55:28;;;;;;;11.30;7.53;;;14.00;83.70;;;;;;6254013;28;20979;-81
2021/09/17 02:58:29;;;;;;;13.45;8.43;;;14.10;83.80;;;;;;6254847;28;20499;-78
2021/09/17 03:01:31;;;;;;;11.48;6.80;;;14.00;83.70;;;;;;6255042;28;20426;-79
2021/09/17 03:04:33;;;;;;;8.95;7.60;;;13.90;83.40;;;;;;6255465;28;20495;-79
2021/09/17 03:07:36;;;;;;;11.25;8.23;;;13.90;84.10;;;;;;6255713;28;20935;-80
2021/09/17 03:10:38;;;;;;;8.57;7.20;;;13.90;83.30;;;;;;6254857;28;20868;-79
2021/09/17 03:13:40;;;;;;;13.03;7.73;;;13.90;83.80;;;;;;6255724;28;20644;-79
2021/09/17 03:16:42;;;;;;;11.23;7.60;;;13.80;83.30;;;;;;6255103;28;20923;-79
2021/09/17 03:19:44;;;;;;;14.83;7.80;;;13.80;83.50;;;;;;6255298;28;20441;-79
2021/09/17 03:22:47;;;;;;;9.73;6.88;;;13.80;83.30;;;;;;6254303;28;20514;-79
2021/09/17 03:25:49;;;;;;;10.98;7.95;;;13.80;83.50;;;;;;6255145;28;20891;-79
2021/09/17 03:28:51;;;;;;;9.45;8.02;;;13.70;83.80;;;;;;6254156;28;20492;-80
2021/09/17 03:31:54;;;;;;;9.88;6.53;;;13.70;83.20;;;;;;6256466;28;20427;-80
2021/09/17 03:34:55;;;;;;;13.90;7.93;;;13.60;83.00;;;;;;6255680;28;20576;-80
2021/09/17 03:37:59;;;;;;;12.65;7.50;;;13.60;83.10;;;;;;6249666;28;20415;-80
2021/09/17 03:41:01;;;;;;;9.55;7.07;;;13.60;83.10;;;;;;6256313;28;20403;-79
2021/09/17 03:44:03;;;;;;;12.43;7.60;;;13.60;83.70;;;;;;6257447;28;20434;-79
2021/09/17 03:47:05;;;;;;;11.18;6.93;;;13.50;83.80;;;;;;6256987;28;20483;-80
2021/09/17 03:50:07;;;;;;;9.70;6.68;;;13.50;84.00;;;;;;6271589;28;20411;-80
2021/09/17 03:53:11;;;;;;;9.73;7.13;;;13.50;83.70;;;;;;6252629;28;20407;-80
2021/09/17 03:56:13;;;;;;;13.85;8.32;;;13.50;83.60;;;;;;6251930;28;20510;-80
2021/09/17 03:59:14;;;;;;;8.88;6.95;;;13.40;83.50;;;;;;6252503;28;20489;-80
2021/09/17 04:02:16;;;;;;;10.20;7.57;;;13.40;83.80;;;;;;6251685;28;20415;-80
2021/09/17 04:05:18;;;;;;;17.27;7.70;;;13.30;83.90;;;;;;6253692;28;20501;-79
2021/09/17 04:08:21;;;;;;;9.93;7.23;;;13.30;82.90;;;;;;6252995;28;20580;-80
2021/09/17 04:11:23;;;;;;;11.80;6.57;;;13.20;83.80;;;;;;6252573;28;20498;-79
2021/09/17 04:14:26;;;;;;;9.70;6.47;;;13.20;83.50;;;;;;6251998;28;20494;-80
2021/09/17 04:17:27;;;;;;;10.45;6.93;;;13.20;83.40;;;;;;6252114;28;20442;-79
2021/09/17 04:20:29;;;;;;;14.23;6.28;;;13.20;83.50;;;;;;6251330;28;20919;-79
2021/09/17 04:23:32;;;;;;;12.15;7.10;;;13.20;83.50;;;;;;6251985;28;20454;-79
2021/09/17 04:26:34;;;;;;;11.82;6.80;;;13.20;83.10;;;;;;6250231;28;20498;-79
2021/09/17 04:29:36;;;;;;;8.48;6.80;;;13.20;83.20;;;;;;6251163;28;20441;-79
2021/09/17 04:32:38;;;;;;;7.57;5.60;;;13.20;83.40;;;;;;6250851;28;20461;-79
2021/09/17 04:35:40;;;;;;;8.52;6.47;;;13.10;83.30;;;;;;6247165;28;20492;-77
2021/09/17 04:38:43;;;;;;;9.23;7.33;;;13.00;83.10;;;;;;6229624;28;20502;-77
2021/09/17 04:41:45;;;;;;;13.68;8.02;;;13.00;83.10;;;;;;6220595;28;20832;-76
2021/09/17 04:44:47;;;;;;;9.90;6.53;;;13.00;83.40;;;;;;6221332;28;20571;-77
2021/09/17 04:47:49;;;;;;;11.80;6.40;;;13.00;83.30;;;;;;6227909;28;20494;-78
2021/09/17 04:50:51;;;;;;;9.60;6.37;;;12.90;83.10;;;;;;6221036;28;20936;-78
2021/09/17 04:53:54;;;;;;;11.57;6.75;;;12.90;83.10;;;;;;6220772;28;21056;-78
2021/09/17 04:56:56;;;;;;;12.63;7.63;;;13.00;83.00;;;;;;6220922;28;20527;-78
2021/09/17 04:59:57;;;;;;;14.63;6.97;;;13.00;84.90;;;;;;6220753;28;20528;-78
2021/09/17 05:02:59;;;;;;;11.63;6.68;;;13.10;85.30;;;;;;6220523;28;20427;-78
2021/09/17 05:06:01;;;;;;;9.70;5.70;;;13.10;84.40;;;;;;6220357;28;20991;-77
2021/09/17 05:09:04;;;;;;;6.55;5.90;;;13.20;83.60;;;;;;6220233;28;20488;-78
2021/09/17 05:12:06;;;;;;;15.63;6.35;;;13.20;82.80;;;;;;6221549;28;20428;-78
2021/09/17 05:15:09;;;;;;;7.65;5.57;;;13.30;83.10;;;;;;6220490;28;20441;-77
2021/09/17 05:18:11;;;;;;;9.45;5.40;;;13.50;82.70;;;;;;6220217;28;20491;-78
2021/09/17 05:21:14;;;;;;;12.60;5.88;;;13.60;82.30;;;;;;6219785;28;20421;-78
2021/09/17 05:24:17;;;;;;;7.82;5.90;;;13.60;82.10;;;;;;6221023;28;20514;-77
2021/09/17 05:27:19;;;;;;;7.88;6.32;;;13.70;82.60;;;;;;6220141;28;20995;-78
2021/09/17 05:30:23;;;;;;;9.25;5.68;;;13.80;81.80;;;;;;6261929;23;20423;-78
2021/09/17 05:33:25;;;;;;;11.52;5.60;;;13.90;81.60;;;;;;6254275;28;20415;-79
2021/09/17 05:36:29;;;;;;;9.68;6.10;;;13.90;81.90;;;;;;6252657;28;20434;-78
2021/09/17 05:39:33;;;;;;;11.70;5.38;;;14.40;82.10;;;;;;6253704;28;20457;-78
2021/09/17 05:42:36;;;;;;;12.95;7.28;;;14.10;81.50;;;;;;6234298;28;20475;-78
2021/09/17 05:45:39;;;;;;;13.65;5.68;;;14.20;81.30;;;;;;6234527;28;20416;-78
2021/09/17 05:48:41;;;;;;;12.25;7.50;;;14.50;81.60;;;;;;6232354;28;20440;-79
2021/09/17 05:51:46;;;;;;;8.00;5.88;;;14.50;81.30;;;;;;6233002;28;20429;-79
2021/09/17 05:54:49;;;;;;;9.23;5.47;;;15.20;81.60;;;;;;6234146;28;20421;-78
2021/09/17 05:57:51;;;;;;;8.00;5.80;;;14.70;80.90;;;;;;6234047;28;20421;-78
2021/09/17 06:00:53;;;;;;;9.48;6.63;;;14.80;80.50;;;;;;6232605;28;20478;-76
2021/09/17 06:03:55;;;;;;;15.85;6.70;;;15.50;81.10;;;;;;6234198;28;20495;-79
2021/09/17 06:06:56;;;;;;;15.30;7.50;;;14.90;81.30;;;;;;6234648;28;20498;-79
2021/09/17 06:10:00;;;;;;;15.38;6.53;;;15.00;80.60;;;;;;6231775;28;20937;-78
2021/09/17 06:13:02;;;;;;;12.38;5.90;;;15.50;80.00;;;;;;6229844;28;20416;-78
2021/09/17 06:16:05;;;;;;;13.10;6.63;;;15.70;80.50;;;;;;6233305;28;20546;-78
2021/09/17 06:19:06;;;;;;;12.02;6.28;;;15.30;80.50;;;;;;6231451;28;20499;-78
2021/09/17 06:22:08;;;;;;;10.25;6.47;;;16.80;80.30;;;;;;6232371;28;20413;-78
2021/09/17 06:25:14;;;;;;;10.20;6.60;;;15.60;79.50;;;;;;6232554;28;20417;-78
2021/09/17 06:28:16;;;;;;;9.20;6.55;;;16.10;79.50;;;;;;6233889;28;20437;-78
2021/09/17 06:31:18;;;;;;;12.63;6.55;;;16.00;79.30;;;;;;6233287;28;20503;-76
2021/09/17 06:34:20;;;;;;;10.35;6.68;;;16.00;78.80;;;;;;6231959;28;20416;-78
2021/09/17 06:37:22;;;;;;;7.35;6.53;;;16.10;78.80;;;;;;6233288;28;20478;-78
2021/09/17 06:40:27;;;;;;;11.75;7.18;;;16.80;78.30;;;;;;6246670;28;20856;-77
2021/09/17 06:43:29;;;;;;;7.63;6.00;;;16.20;78.70;;;;;;6254287;28;20422;-78
2021/09/17 06:46:30;;;;;;;12.60;7.35;;;16.30;78.40;;;;;;6256233;28;20411;-77
2021/09/17 06:49:32;;;;;;;9.13;6.55;;;16.40;78.60;;;;;;6256302;28;20501;-77
2021/09/17 06:52:34;;;;;;;5.45;4.95;;;16.60;78.40;;;;;;6256615;28;20434;-78
2021/09/17 06:55:37;;;;;;;7.15;5.93;;;16.90;77.60;;;;;;6256857;28;20588;-78
2021/09/17 06:58:39;;;;;;;9.38;5.78;;;17.30;77.00;;;;;;6255358;28;20411;-77
2021/09/17 07:01:41;;;;;;;7.53;5.97;;;17.10;75.40;;;;;;6256725;28;20508;-76
2021/09/17 07:04:45;;;;;;;6.57;5.22;;;17.20;77.30;;;;;;6256472;28;20430;-78
2021/09/17 07:07:47;;;;;;;7.35;5.13;;;17.30;75.90;;;;;;6254470;28;20490;-76
2021/09/17 07:10:51;;;;;;;20.00;16.98;;;17.50;76.80;;;;;;6246389;28;20449;-77
2021/09/17 07:13:52;;;;;;;8.52;6.28;;;17.90;75.40;;;;;;6252839;28;20419;-77
2021/09/17 07:16:54;;;;;;;7.63;5.20;;;18.10;74.40;;;;;;6250277;28;20461;-76
2021/09/17 07:19:56;;;;;;;10.70;5.35;;;18.20;73.60;;;;;;6251280;28;20434;-77
2021/09/17 07:22:58;;;;;;;6.35;5.32;;;18.50;72.80;;;;;;6251517;28;20512;-77
2021/09/17 07:26:01;;;;;;;7.30;5.68;;;18.60;72.40;;;;;;6252067;28;20494;-77
2021/09/17 07:29:03;;;;;;;7.88;5.95;;;18.70;72.40;;;;;;6251803;28;20465;-77
2021/09/17 07:32:06;;;;;;;5.88;4.78;;;19.00;71.80;;;;;;6252402;28;20455;-77
2021/09/17 07:35:09;;;;;;;7.60;5.60;;;19.10;71.00;;;;;;6251371;28;20425;-77
2021/09/17 07:38:11;;;;;;;7.55;4.75;;;19.20;70.90;;;;;;6251910;28;20450;-77
2021/09/17 07:41:14;;;;;;;5.22;4.72;;;19.30;70.60;;;;;;6247178;28;20419;-77
2021/09/17 07:44:16;;;;;;;8.95;5.53;;;19.40;71.00;;;;;;6252381;28;20466;-77
2021/09/17 07:47:19;;;;;;;7.00;5.70;;;19.50;70.50;;;;;;6252941;28;20521;-77
2021/09/17 07:50:21;;;;;;;11.70;6.47;;;19.60;70.30;;;;;;6251194;28;20514;-78
2021/09/17 07:53:23;;;;;;;8.02;6.00;;;19.80;70.10;;;;;;6251233;28;20419;-77
2021/09/17 07:56:26;;;;;;;8.68;6.60;;;20.00;69.80;;;;;;6250316;28;20774;-77
2021/09/17 07:59:28;;;;;;;7.07;5.05;;;20.10;68.90;;;;;;6249372;28;20506;-77
2021/09/17 08:02:30;;;;;;;9.50;6.10;;;20.30;68.90;;;;;;6252114;28;20418;-77
2021/09/17 08:05:32;;;;;;;6.43;5.65;;;20.50;68.10;;;;;;6250841;28;20441;-77
2021/09/17 08:08:34;;;;;;;7.07;6.38;;;20.60;67.90;;;;;;6251829;28;20557;-77
2021/09/17 08:11:37;;;;;;;10.57;5.63;;;20.80;67.70;;;;;;6242136;28;20824;-77
2021/09/17 08:14:39;;;;;;;9.27;6.75;;;21.00;66.90;;;;;;6239681;28;20435;-77
2021/09/17 08:17:41;;;;;;;7.90;5.72;;;21.10;66.80;;;;;;6227762;28;20528;-77
2021/09/17 08:20:48;;;;;;;7.82;6.47;;;21.20;66.30;;;;;;6222931;28;20591;-77
2021/09/17 08:23:51;;;;;;;6.95;5.90;;;21.10;66.00;;;;;;6224469;28;20941;-77
2021/09/17 08:26:56;;;;;;;8.52;6.38;;;21.30;66.20;;;;;;6224074;28;20508;-77
2021/09/17 08:29:58;;;;;;;10.10;6.22;;;21.40;65.50;;;;;;6223257;28;20421;-77
2021/09/17 08:32:59;;;;;;;7.65;6.38;;;21.30;66.20;;;;;;6221980;28;20848;-77
2021/09/17 08:36:01;;;;;;;12.27;7.72;;;21.20;66.60;;;;;;6222289;28;20849;-76
2021/09/17 08:39:04;;;;;;;10.02;6.78;;;21.20;66.80;;;;;;6234474;28;20465;-77
2021/09/17 08:42:08;;;;;;;9.63;7.15;;;21.20;67.20;;;;;;6237104;28;20495;-77
2021/09/17 08:45:11;;;;;;;7.07;5.53;;;21.50;66.70;;;;;;6246013;28;20773;-77
2021/09/17 08:48:14;;;;;;;9.07;6.25;;;21.70;65.60;;;;;;6247195;28;20504;-76
2021/09/17 08:51:16;;;;;;;10.30;7.65;;;22.00;65.00;;;;;;6246183;28;20501;-77
2021/09/17 08:54:18;;;;;;;8.45;7.03;;;22.00;64.80;;;;;;6247299;28;20421;-77
2021/09/17 08:57:21;;;;;;;9.20;8.05;;;22.20;63.60;;;;;;6246978;28;20423;-77
2021/09/17 09:00:40;;;;;;;9.70;7.88;;;22.30;63.70;;;;;;6246900;28;20498;-76
2021/09/17 09:03:42;;;;;;;10.07;7.03;;;22.20;62.90;;;;;;6247064;28;20461;-78
2021/09/17 09:06:46;;;;;;;10.07;7.63;;;21.90;64.90;;;;;;6246489;28;21003;-77
2021/09/17 09:09:48;;;;;;;10.68;7.63;;;22.10;64.70;;;;;;6240911;28;20416;-77
2021/09/17 09:12:53;;;;;;;9.85;7.38;;;22.40;63.20;;;;;;6243532;28;20492;-76
2021/09/17 09:15:55;;;;;;;16.60;8.55;;;22.50;62.60;;;;;;6248512;28;20577;-77
2021/09/17 09:18:57;;;;;;;12.65;9.75;;;22.50;59.40;;;;;;6246379;28;20421;-77
2021/09/17 09:22:11;;;;;;;9.50;8.30;;;22.60;58.00;;;;;;6246646;28;20447;-76
2021/09/17 09:25:13;;;;;;;13.38;8.77;;;22.60;60.00;;;;;;6246414;28;20418;-76
2021/09/17 09:28:18;;;;;;;13.55;7.07;;;22.80;58.60;;;;;;6247809;28;20514;-77
2021/09/17 09:31:20;;;;;;;14.23;7.07;;;23.10;58.60;;;;;;6247380;28;20415;-75
2021/09/17 09:34:24;;;;;;;10.45;6.97;;;23.20;54.70;;;;;;6247656;28;20498;-77
2021/09/17 09:37:30;;;;;;;10.45;7.43;;;23.10;56.50;;;;;;6247773;28;20419;-77
2021/09/17 09:40:33;;;;;;;12.00;7.55;;;23.20;55.20;;;;;;6234587;28;20895;-77
2021/09/17 09:43:37;;;;;;;10.55;6.78;;;23.20;54.10;;;;;;6245268;28;20975;-76
2021/09/17 09:46:41;;;;;;;12.48;7.45;;;23.10;56.20;;;;;;6246483;28;20419;-78
2021/09/17 09:49:47;;;;;;;10.37;7.17;;;23.10;55.70;;;;;;6246620;28;20415;-77
2021/09/17 09:52:49;;;;;;;10.82;7.30;;;23.10;55.60;;;;;;6246679;28;20434;-79
2021/09/17 09:55:51;;;;;;;8.93;6.57;;;23.00;56.30;;;;;;6247459;28;20466;-77
2021/09/17 09:58:54;;;;;;;11.07;7.00;;;23.00;55.30;;;;;;6253909;28;20419;-76
2021/09/17 10:02:00;;;;;;;8.63;6.87;;;23.00;56.70;;;;;;6252927;28;20507;-77
2021/09/17 10:05:02;;;;;;;7.72;6.10;;;23.10;54.30;;;;;;6259352;28;20463;-78
2021/09/17 10:08:05;;;;;;;11.07;7.22;;;22.90;55.80;;;;;;6255989;28;20513;-78
2021/09/17 10:11:07;;;;;;;9.27;6.35;;;22.90;55.20;;;;;;6244315;28;20934;-77
2021/09/17 10:14:13;;;;;;;8.93;6.53;;;23.10;56.00;;;;;;6253950;28;20418;-78
2021/09/17 10:17:19;;;;;;;7.35;5.78;;;23.00;54.90;;;;;;6251709;28;20932;-77
2021/09/17 10:20:21;;;;;;;8.85;5.88;;;22.90;56.00;;;;;;6252630;28;20485;-77
2021/09/17 10:23:27;;;;;;;8.80;6.00;;;23.10;57.20;;;;;;6250841;28;20415;-78
2021/09/17 10:26:29;;;;;;;10.80;5.88;;;23.40;55.10;;;;;;6253624;28;20423;-78
2021/09/17 10:29:34;;;;;;;7.75;5.70;;;23.60;55.10;;;;;;6254405;28;21068;-77
2021/09/17 10:32:43;;;;;;;6.10;4.75;;;23.60;54.60;;;;;;6253092;28;20431;-77
2021/09/17 10:35:47;;;;;;;10.05;5.25;;;23.80;54.80;;;;;;6255698;28;20466;-78
2021/09/17 10:38:49;;;;;;;10.63;5.10;;;24.00;54.10;;;;;;6254279;28;20411;-78
2021/09/17 10:42:11;;;;;;;7.10;5.10;;;24.30;53.40;;;;;;6246246;28;20431;-78
2021/09/17 10:45:18;;;;;;;6.80;4.72;;;24.30;51.20;;;;;;6253832;28;20414;-78
2021/09/17 10:48:21;;;;;;;5.93;4.35;;;24.00;52.30;;;;;;6253688;28;20426;-78
2021/09/17 10:51:33;;;;;;;9.90;4.70;;;24.00;53.20;;;;;;6254275;28;20421;-79
2021/09/17 10:54:37;;;;;;;7.17;4.57;;;24.10;52.00;;;;;;6253594;28;20545;-79
2021/09/17 10:58:12;;;;;;;7.03;4.97;;;24.20;52.50;;;;;;6255549;28;20407;-78
2021/09/17 11:01:17;;;;;;;6.50;3.72;;;24.40;49.90;;;;;;6251985;28;20908;-78
2021/09/17 11:04:23;;;;;;;5.13;3.13;;;24.30;50.70;;;;;;6247864;28;20517;-77
2021/09/17 11:07:36;;;;;;;7.43;4.60;;;24.30;51.50;;;;;;6225653;28;20461;-77
2021/09/17 11:10:38;;;;;;;5.38;3.78;;;24.50;51.20;;;;;;6237101;28;20461;-78
2021/09/17 11:13:46;;;;;;;7.03;4.13;;;24.90;49.80;;;;;;6251053;28;20490;-78
2021/09/17 11:16:53;;;;;;;5.57;3.60;;;24.90;49.70;;;;;;6253701;28;20454;-78
2021/09/17 11:20:01;;;;;;;6.18;3.67;;;25.00;48.10;;;;;;6235645;28;20459;-77
2021/09/17 11:23:05;;;;;;;6.85;4.20;;;25.30;46.30;;;;;;6225844;28;20585;-79
2021/09/17 11:26:07;;;;;;;3.50;2.83;;;25.30;47.70;;;;;;6229924;28;20500;-75
2021/09/17 11:29:10;;;;;;;3.00;2.70;;;25.40;44.10;;;;;;6263217;22;20457;-81
2021/09/17 11:32:13;;;;;;;4.03;2.95;;;25.50;45.80;;;;;;6254499;28;20522;-81
2021/09/17 11:35:15;;;;;;;3.72;2.10;;;25.50;42.80;;;;;;6253205;28;20429;-79
2021/09/17 11:38:24;;;;;;;4.95;2.67;;;25.40;42.40;;;;;;6251182;28;20454;-79
2021/09/17 11:41:37;;;;;;;2.92;2.60;;;25.60;44.20;;;;;;6227170;28;20909;-79
2021/09/17 11:44:40;;;;;;;3.70;1.75;;;25.90;42.50;;;;;;6231318;28;20440;-79
2021/09/17 11:47:47;;;;;;;4.72;1.98;;;26.00;42.00;;;;;;6224469;28;20515;-79
2021/09/17 11:50:49;;;;;;;3.33;2.72;;;26.00;39.90;;;;;;6225811;28;20421;-80
2021/09/17 11:53:50;;;;;;;3.63;2.00;;;25.80;41.80;;;;;;6228889;28;20492;-80
2021/09/17 11:57:00;;;;;;;3.92;2.85;;;25.90;42.70;;;;;;6227200;28;20906;-80
2021/09/17 12:00:08;;;;;;;4.22;2.22;;;25.70;42.50;;;;;;6227284;28;20583;-81
2021/09/17 12:03:12;;;;;;;2.28;1.85;;;25.80;43.20;;;;;;6227431;28;20429;-80
2021/09/17 12:06:16;;;;;;;2.78;2.15;;;26.10;42.80;;;;;;6227317;28;20425;-80
2021/09/17 12:09:17;;;;;;;7.00;2.30;;;26.30;41.60;;;;;;6229213;28;20469;-80
2021/09/17 12:12:22;;;;;;;2.00;1.70;;;26.50;39.60;;;;;;6245247;28;20570;-80
2021/09/17 12:15:28;;;;;;;2.67;2.43;;;26.30;38.40;;;;;;6250952;28;20468;-79
2021/09/17 12:18:32;;;;;;;3.38;2.38;;;26.40;38.80;;;;;;6251492;28;20501;-81
2021/09/17 12:21:35;;;;;;;2.60;2.03;;;26.80;38.40;;;;;;6251603;28;20407;-80
2021/09/17 12:24:39;;;;;;;2.45;1.52;;;27.10;37.80;;;;;;6249259;28;20430;-80
2021/09/17 12:27:43;;;;;;;1.40;1.20;;;27.70;38.80;;;;;;6252740;28;20504;-80
2021/09/17 12:30:45;;;;;;;2.28;0.80;;;27.80;34.10;;;;;;6250656;28;20466;-80
2021/09/17 12:33:48;;;;;;;1.65;0.88;;;27.40;31.20;;;;;;6252339;28;20494;-80
2021/09/17 12:36:53;;;;;;;0.50;0.50;;;27.10;32.90;;;;;;6231036;28;20424;-80
2021/09/17 12:40:09;;;;;;;1.37;0.77;;;27.40;30.20;;;;;;6235397;28;20436;-81
2021/09/17 12:43:12;;;;;;;1.00;0.70;;;27.60;32.30;;;;;;6211720;28;20419;-80
2021/09/17 12:46:14;;;;;;;1.20;0.60;;;27.70;32.20;;;;;;6228637;28;20417;-81
2021/09/17 12:49:19;;;;;;;0.80;0.68;;;27.50;30.90;;;;;;6201271;28;20927;-79
2021/09/17 12:52:22;;;;;;;1.90;0.90;;;27.00;31.40;;;;;;6202049;28;20470;-80
2021/09/17 12:55:26;;;;;;;0.97;0.80;;;26.50;32.40;;;;;;6201349;28;20857;-79
2021/09/17 12:58:30;;;;;;;1.70;0.75;;;26.40;32.60;;;;;;6201524;28;20442;-81
2021/09/17 13:01:32;;;;;;;1.33;1.00;;;26.60;33.20;;;;;;6221610;28;20512;-80
2021/09/17 13:04:35;;;;;;;1.50;1.00;;;27.10;32.90;;;;;;6227216;28;20439;-80
2021/09/17 13:07:37;;;;;;;2.00;0.83;;;27.40;32.50;;;;;;6205652;28;20516;-80
2021/09/17 13:10:42;;;;;;;0.97;0.87;;;27.90;33.20;;;;;;6234578;28;20461;-80
2021/09/17 13:13:44;;;;;;;1.55;1.08;;;28.40;32.10;;;;;;6250530;28;20411;-80
2021/09/17 13:16:46;;;;;;;1.10;1.00;;;28.20;33.80;;;;;;6252904;28;20430;-81
2021/09/17 13:19:49;;;;;;;3.53;1.00;;;28.00;33.00;;;;;;6252727;28;20430;-81
2021/09/17 13:22:51;;;;;;;1.23;1.13;;;27.90;34.10;;;;;;6251329;28;20501;-80
2021/09/17 13:25:53;;;;;;;2.10;1.63;;;27.90;32.40;;;;;;6250912;28;20506;-81
2021/09/17 13:28:55;;;;;;;2.20;0.98;;;27.60;34.60;;;;;;6250278;28;20414;-80
2021/09/17 13:31:57;;;;;;;2.40;0.95;;;27.20;35.00;;;;;;6251278;28;20453;-80
2021/09/17 13:35:01;;;;;;;1.45;0.80;;;26.70;35.90;;;;;;6250195;28;20446;-80
2021/09/17 13:38:04;;;;;;;2.13;1.40;;;26.30;36.20;;;;;;6246069;28;20423;-80
2021/09/17 13:41:06;;;;;;;2.67;1.50;;;25.80;35.00;;;;;;6242332;28;20900;-81
2021/09/17 13:44:07;;;;;;;1.65;1.17;;;25.50;37.70;;;;;;6253503;28;20597;-80
2021/09/17 13:47:09;;;;;;;2.63;1.20;;;25.40;39.00;;;;;;6238689;28;20917;-81
2021/09/17 13:50:16;;;;;;;0.95;0.90;;;25.10;40.70;;;;;;6225109;28;20499;-81
2021/09/17 13:53:17;;;;;;;1.58;1.13;;;24.60;41.00;;;;;;6226053;28;20448;-81
2021/09/17 13:56:19;;;;;;;4.70;1.23;;;24.60;40.20;;;;;;6226691;28;20456;-81
2021/09/17 13:59:21;;;;;;;2.08;1.63;;;24.80;39.40;;;;;;6229183;28;20495;-81
2021/09/17 14:02:23;;;;;;;2.95;1.10;;;25.20;38.20;;;;;;6230481;28;20425;-81
2021/09/17 14:05:27;;;;;;;1.77;1.40;;;25.50;37.50;;;;;;6230286;28;20785;-81
2021/09/17 14:08:29;;;;;;;2.90;1.50;;;25.80;37.40;;;;;;6233554;28;20515;-82
2021/09/17 14:11:31;;;;;;;1.80;1.20;;;26.00;37.90;;;;;;6247498;28;20512;-82
2021/09/17 14:14:33;;;;;;;4.47;1.38;;;26.40;37.30;;;;;;6254704;28;20498;-82
2021/09/17 14:17:36;;;;;;;1.60;0.93;;;26.70;36.50;;;;;;6255601;28;20553;-82
2021/09/17 14:20:39;;;;;;;3.53;1.35;;;26.60;37.20;;;;;;6255431;28;20430;-82
2021/09/17 14:23:41;;;;;;;2.17;1.20;;;26.70;36.90;;;;;;6255523;28;20524;-82
2021/09/17 14:26:43;;;;;;;1.90;0.80;;;26.80;35.60;;;;;;6255164;28;20549;-82
2021/09/17 14:29:48;;;;;;;2.53;1.17;;;26.50;36.00;;;;;;6254902;28;20828;-81
2021/09/17 14:32:53;;;;;;;1.33;1.23;;;26.20;37.00;;;;;;6255795;28;20839;-81
2021/09/17 14:35:57;;;;;;;1.73;1.10;;;26.20;35.90;;;;;;6255635;28;20438;-82
2021/09/17 14:38:58;;;;;;;2.80;1.30;;;25.90;36.80;;;;;;6241339;28;20526;-82
2021/09/17 14:42:00;;;;;;;2.45;1.38;;;25.70;37.90;;;;;;6238660;28;20540;-81
2021/09/17 14:45:02;;;;;;;1.85;1.63;;;25.80;36.70;;;;;;6231056;28;20929;-82
2021/09/17 14:48:05;;;;;;;1.48;1.08;;;26.00;36.80;;;;;;6230449;28;20437;-82
2021/09/17 14:51:08;;;;;;;3.33;1.02;;;26.30;36.00;;;;;;6229844;28;20423;-82
2021/09/17 14:54:10;;;;;;;2.27;1.50;;;26.40;34.90;;;;;;6231197;28;20512;-81
2021/09/17 14:57:11;;;;;;;1.60;1.30;;;26.30;36.30;;;;;;6230867;28;20512;-81
2021/09/17 15:00:14;;;;;;;2.58;1.13;;;26.70;35.70;;;;;;6231078;28;20530;-81
2021/09/17 15:03:16;;;;;;;1.45;0.90;;;26.80;34.10;;;;;;6232422;28;20467;-81
2021/09/17 15:06:19;;;;;;;2.65;2.25;;;26.50;34.10;;;;;;6233230;28;20443;-81
2021/09/17 15:09:21;;;;;;;1.33;1.20;;;26.00;35.40;;;;;;6240261;28;20494;-81
2021/09/17 15:12:23;;;;;;;3.72;3.10;;;25.70;36.50;;;;;;6252134;28;20439;-80
2021/09/17 15:15:25;;;;;;;2.05;1.48;;;25.60;36.50;;;;;;6256943;28;20442;-80
2021/09/17 15:18:27;;;;;;;1.58;1.42;;;25.40;37.90;;;;;;6264070;28;20446;-80
2021/09/17 15:21:30;;;;;;;2.58;1.30;;;25.10;37.80;;;;;;6254111;28;20489;-81
2021/09/17 15:24:32;;;;;;;2.00;1.43;;;24.90;37.80;;;;;;6252749;28;20470;-79
2021/09/17 15:27:34;;;;;;;1.42;1.33;;;24.90;39.10;;;;;;6252634;28;20442;-79
2021/09/17 15:30:36;;;;;;;2.03;1.27;;;24.50;39.00;;;;;;6252027;28;21042;-80
2021/09/17 15:33:38;;;;;;;1.50;1.40;;;24.20;39.80;;;;;;6251844;28;20415;-79
2021/09/17 15:36:41;;;;;;;1.48;1.25;;;23.90;40.40;;;;;;6251674;28;20560;-80
2021/09/17 15:39:43;;;;;;;1.90;1.20;;;23.70;40.80;;;;;;6242454;28;20519;-79
2021/09/17 15:42:45;;;;;;;1.75;1.40;;;23.60;42.10;;;;;;6248353;28;20503;-80
2021/09/17 15:45:48;;;;;;;3.10;2.30;;;23.40;43.60;;;;;;6252142;28;20494;-80
2021/09/17 15:48:50;;;;;;;1.88;1.40;;;23.30;43.00;;;;;;6239161;28;20455;-80